METAR Formatted Surface Weather Observation
Issued by NWS

Home | Current Version | Previous Version | Text Only | Print | Product List | Glossary On
Versions: 1 2
000
SAUS70 KEPZ 091503
MTR5T6

METAR K5T6 091459Z 13008KT 10SM SCT130 SCT250 27/14 A3013 RMK
UNOFFICIAL=





USA.gov is the U.S. government's official web portal to all federal, state and local government web resources and services.